sensor_id;sensor_type;location;lat;lon;timestamp;temperature;humidity
2579;DHT22;1299;48.282;14.398;2023-03-19T00:02:15;5.80;99.90
2579;DHT22;1299;48.282;14.398;2023-03-19T00:04:42;5.90;99.90
2579;DHT22;1299;48.282;14.398;2023-03-19T00:07:10;5.90;99.90
2579;DHT22;1299;48.282;14.398;2023-03-19T00:09:39;5.80;99.90
2579;DHT22;1299;48.282;14.398;2023-03-19T00:12:07;5.70;99.90
2579;DHT22;1299;48.282;14.398;2023-03-19T00:14:34;5.70;99.90
2579;DHT22;1299;48.282;14.398;2023-03-19T00:17:02;5.60;99.90
2579;DHT22;1299;48.282;14.398;2023-03-19T00:19:29;5.60;99.90
2579;DHT22;1299;48.282;14.398;2023-03-19T00:21:56;5.60;99.90
2579;DHT22;1299;48.282;14.398;2023-03-19T00:24:24;5.60;99.90
2579;DHT22;1299;48.282;14.398;2023-03-19T00:26:52;5.60;99.90
2579;DHT22;1299;48.282;14.398;2023-03-19T00:29:20;5.60;99.90
2579;DHT22;1299;48.282;14.398;2023-03-19T00:31:48;5.60;99.90
2579;DHT22;1299;48.282;14.398;2023-03-19T00:34:16;5.50;99.90
2579;DHT22;1299;48.282;14.398;2023-03-19T00:36:44;5.40;99.90
2579;DHT22;1299;48.282;14.398;2023-03-19T00:39:12;5.40;99.90
2579;DHT22;1299;48.282;14.398;2023-03-19T00:41:39;5.40;99.90
2579;DHT22;1299;48.282;14.398;2023-03-19T00:44:08;5.20;99.90
2579;DHT22;1299;48.282;14.398;2023-03-19T00:46:36;5.20;99.90
2579;DHT22;1299;48.282;14.398;2023-03-19T00:49:03;5.20;99.90
2579;DHT22;1299;48.282;14.398;2023-03-19T00:51:30;5.30;99.90
2579;DHT22;1299;48.282;14.398;2023-03-19T00:53:58;5.30;99.90
2579;DHT22;1299;48.282;14.398;2023-03-19T00:56:25;5.30;99.90
2579;DHT22;1299;48.282;14.398;2023-03-19T00:58:52;5.20;99.90
2579;DHT22;1299;48.282;14.398;2023-03-19T01:01:23;5.10;99.90
2579;DHT22;1299;48.282;14.398;2023-03-19T01:03:51;5.00;99.90
2579;DHT22;1299;48.282;14.398;2023-03-19T01:06:18;5.10;99.90
2579;DHT22;1299;48.282;14.398;2023-03-19T01:08:45;5.00;99.90
2579;DHT22;1299;48.282;14.398;2023-03-19T01:11:14;5.10;99.90
2579;DHT22;1299;48.282;14.398;2023-03-19T01:13:43;5.00;99.90
2579;DHT22;1299;48.282;14.398;2023-03-19T01:16:10;5.00;99.90
2579;DHT22;1299;48.282;14.398;2023-03-19T01:18:39;4.90;99.90
2579;DHT22;1299;48.282;14.398;2023-03-19T01:21:06;5.00;99.90
2579;DHT22;1299;48.282;14.398;2023-03-19T01:23:35;4.90;99.90
2579;DHT22;1299;48.282;14.398;2023-03-19T01:26:03;4.90;99.90
2579;DHT22;1299;48.282;14.398;2023-03-19T01:28:31;4.80;99.90
2579;DHT22;1299;48.282;14.398;2023-03-19T01:30:59;4.80;99.90
2579;DHT22;1299;48.282;14.398;2023-03-19T01:33:27;4.80;99.90
2579;DHT22;1299;48.282;14.398;2023-03-19T01:35:56;4.80;99.90
2579;DHT22;1299;48.282;14.398;2023-03-19T01:38:27;4.80;99.90
2579;DHT22;1299;48.282;14.398;2023-03-19T01:40:54;4.80;99.90
2579;DHT22;1299;48.282;14.398;2023-03-19T01:43:23;4.70;99.90
2579;DHT22;1299;48.282;14.398;2023-03-19T01:45:53;4.70;99.90
2579;DHT22;1299;48.282;14.398;2023-03-19T01:48:28;4.80;99.90
2579;DHT22;1299;48.282;14.398;2023-03-19T01:51:00;4.70;99.90
2579;DHT22;1299;48.282;14.398;2023-03-19T01:53:31;4.70;99.90
2579;DHT22;1299;48.282;14.398;2023-03-19T01:56:02;4.70;99.90
2579;DHT22;1299;48.282;14.398;2023-03-19T01:58:30;4.80;99.90
2579;DHT22;1299;48.282;14.398;2023-03-19T02:00:58;4.80;99.90
2579;DHT22;1299;48.282;14.398;2023-03-19T02:03:25;4.80;99.90
2579;DHT22;1299;48.282;14.398;2023-03-19T02:05:54;4.90;99.90
2579;DHT22;1299;48.282;14.398;2023-03-19T02:08:24;4.90;99.90
2579;DHT22;1299;48.282;14.398;2023-03-19T02:10:53;4.80;99.90
2579;DHT22;1299;48.282;14.398;2023-03-19T02:13:21;4.80;99.90
2579;DHT22;1299;48.282;14.398;2023-03-19T02:15:49;4.70;99.90
2579;DHT22;1299;48.282;14.398;2023-03-19T02:18:17;4.60;99.90
2579;DHT22;1299;48.282;14.398;2023-03-19T02:20:49;4.60;99.90
2579;DHT22;1299;48.282;14.398;2023-03-19T02:23:29;4.60;99.90
2579;DHT22;1299;48.282;14.398;2023-03-19T02:26:06;4.70;99.90
2579;DHT22;1299;48.282;14.398;2023-03-19T02:28:37;4.70;99.90
2579;DHT22;1299;48.282;14.398;2023-03-19T02:31:05;4.70;99.90
2579;DHT22;1299;48.282;14.398;2023-03-19T02:33:32;4.70;99.90
2579;DHT22;1299;48.282;14.398;2023-03-19T02:36:01;4.60;99.90
2579;DHT22;1299;48.282;14.398;2023-03-19T02:38:31;4.60;99.90
2579;DHT22;1299;48.282;14.398;2023-03-19T02:41:01;4.50;99.90
2579;DHT22;1299;48.282;14.398;2023-03-19T02:43:32;4.40;99.90
2579;DHT22;1299;48.282;14.398;2023-03-19T02:46:00;4.30;99.90
2579;DHT22;1299;48.282;14.398;2023-03-19T02:48:28;4.40;99.90
2579;DHT22;1299;48.282;14.398;2023-03-19T02:50:55;4.30;99.90
2579;DHT22;1299;48.282;14.398;2023-03-19T02:53:23;4.30;99.90
2579;DHT22;1299;48.282;14.398;2023-03-19T02:55:50;4.20;99.90
2579;DHT22;1299;48.282;14.398;2023-03-19T02:58:18;4.20;99.90
2579;DHT22;1299;48.282;14.398;2023-03-19T03:00:47;4.10;99.90
2579;DHT22;1299;48.282;14.398;2023-03-19T03:03:14;4.10;99.90
2579;DHT22;1299;48.282;14.398;2023-03-19T03:05:42;4.10;99.90
2579;DHT22;1299;48.282;14.398;2023-03-19T03:08:09;4.10;99.90
2579;DHT22;1299;48.282;14.398;2023-03-19T03:10:36;4.00;99.90
2579;DHT22;1299;48.282;14.398;2023-03-19T03:13:04;4.00;99.90
2579;DHT22;1299;48.282;14.398;2023-03-19T03:15:32;4.00;99.90
2579;DHT22;1299;48.282;14.398;2023-03-19T03:18:00;3.90;99.90
2579;DHT22;1299;48.282;14.398;2023-03-19T03:20:28;3.90;99.90
2579;DHT22;1299;48.282;14.398;2023-03-19T03:22:55;3.90;99.90
2579;DHT22;1299;48.282;14.398;2023-03-19T03:25:22;3.90;99.90
2579;DHT22;1299;48.282;14.398;2023-03-19T03:27:50;3.80;99.90
2579;DHT22;1299;48.282;14.398;2023-03-19T03:30:18;3.80;99.90
2579;DHT22;1299;48.282;14.398;2023-03-19T03:32:46;3.90;99.90
2579;DHT22;1299;48.282;14.398;2023-03-19T03:35:14;3.90;99.90
2579;DHT22;1299;48.282;14.398;2023-03-19T03:37:47;3.90;99.90
2579;DHT22;1299;48.282;14.398;2023-03-19T03:40:15;3.70;99.90
2579;DHT22;1299;48.282;14.398;2023-03-19T03:42:42;3.80;99.90
2579;DHT22;1299;48.282;14.398;2023-03-19T03:45:10;3.80;99.90
2579;DHT22;1299;48.282;14.398;2023-03-19T03:47:38;3.90;99.90
2579;DHT22;1299;48.282;14.398;2023-03-19T03:50:07;3.90;99.90
2579;DHT22;1299;48.282;14.398;2023-03-19T03:52:37;3.90;99.90
2579;DHT22;1299;48.282;14.398;2023-03-19T03:55:06;3.80;99.90
2579;DHT22;1299;48.282;14.398;2023-03-19T03:57:36;3.90;99.90
2579;DHT22;1299;48.282;14.398;2023-03-19T04:00:06;3.90;99.90
2579;DHT22;1299;48.282;14.398;2023-03-19T04:02:33;3.90;99.90
2579;DHT22;1299;48.282;14.398;2023-03-19T04:05:01;3.90;99.90
2579;DHT22;1299;48.282;14.398;2023-03-19T04:07:28;3.80;99.90
2579;DHT22;1299;48.282;14.398;2023-03-19T04:09:57;3.80;99.90
2579;DHT22;1299;48.282;14.398;2023-03-19T04:12:25;3.90;99.90
2579;DHT22;1299;48.282;14.398;2023-03-19T04:14:53;3.80;99.90
2579;DHT22;1299;48.282;14.398;2023-03-19T04:17:20;3.80;99.90
2579;DHT22;1299;48.282;14.398;2023-03-19T04:19:48;3.80;99.90
2579;DHT22;1299;48.282;14.398;2023-03-19T04:22:16;3.80;99.90
2579;DHT22;1299;48.282;14.398;2023-03-19T04:24:43;3.80;99.90
2579;DHT22;1299;48.282;14.398;2023-03-19T04:27:12;3.70;99.90
2579;DHT22;1299;48.282;14.398;2023-03-19T04:29:40;3.70;99.90
2579;DHT22;1299;48.282;14.398;2023-03-19T04:32:07;3.70;99.90
2579;DHT22;1299;48.282;14.398;2023-03-19T04:34:34;3.70;99.90
2579;DHT22;1299;48.282;14.398;2023-03-19T04:37:02;3.70;99.90
2579;DHT22;1299;48.282;14.398;2023-03-19T04:39:29;3.60;99.90
2579;DHT22;1299;48.282;14.398;2023-03-19T04:41:56;3.60;99.90
2579;DHT22;1299;48.282;14.398;2023-03-19T04:44:25;3.70;99.90
2579;DHT22;1299;48.282;14.398;2023-03-19T04:46:52;3.70;99.90
2579;DHT22;1299;48.282;14.398;2023-03-19T04:49:20;3.60;99.90
2579;DHT22;1299;48.282;14.398;2023-03-19T04:51:47;3.50;99.90
2579;DHT22;1299;48.282;14.398;2023-03-19T04:54:15;3.60;99.90
2579;DHT22;1299;48.282;14.398;2023-03-19T04:56:42;3.50;99.90
2579;DHT22;1299;48.282;14.398;2023-03-19T04:59:10;3.60;99.90
2579;DHT22;1299;48.282;14.398;2023-03-19T05:01:38;3.60;99.90
2579;DHT22;1299;48.282;14.398;2023-03-19T05:04:06;3.60;99.90
2579;DHT22;1299;48.282;14.398;2023-03-19T05:06:33;3.40;99.90
2579;DHT22;1299;48.282;14.398;2023-03-19T05:09:01;3.50;99.90
2579;DHT22;1299;48.282;14.398;2023-03-19T05:11:28;3.50;99.90
2579;DHT22;1299;48.282;14.398;2023-03-19T05:13:56;3.50;99.90
2579;DHT22;1299;48.282;14.398;2023-03-19T05:16:23;3.60;99.90
2579;DHT22;1299;48.282;14.398;2023-03-19T05:18:52;3.60;99.90
2579;DHT22;1299;48.282;14.398;2023-03-19T05:21:19;3.70;99.90
2579;DHT22;1299;48.282;14.398;2023-03-19T05:23:46;3.70;99.90
2579;DHT22;1299;48.282;14.398;2023-03-19T05:26:17;3.90;99.90
2579;DHT22;1299;48.282;14.398;2023-03-19T05:28:44;3.90;99.90
2579;DHT22;1299;48.282;14.398;2023-03-19T05:31:12;3.90;99.90
2579;DHT22;1299;48.282;14.398;2023-03-19T05:33:40;4.00;99.90
2579;DHT22;1299;48.282;14.398;2023-03-19T05:36:09;4.00;99.90
2579;DHT22;1299;48.282;14.398;2023-03-19T05:38:37;3.70;99.90
2579;DHT22;1299;48.282;14.398;2023-03-19T05:41:05;4.00;99.90
2579;DHT22;1299;48.282;14.398;2023-03-19T05:43:33;4.20;99.90
2579;DHT22;1299;48.282;14.398;2023-03-19T05:46:00;4.30;99.90
2579;DHT22;1299;48.282;14.398;2023-03-19T05:48:28;4.30;99.90
2579;DHT22;1299;48.282;14.398;2023-03-19T05:50:55;4.50;99.90
2579;DHT22;1299;48.282;14.398;2023-03-19T05:53:25;4.60;99.90
2579;DHT22;1299;48.282;14.398;2023-03-19T05:55:53;4.80;99.90
2579;DHT22;1299;48.282;14.398;2023-03-19T05:58:20;5.30;99.90
2579;DHT22;1299;48.282;14.398;2023-03-19T06:00:47;6.00;99.90
2579;DHT22;1299;48.282;14.398;2023-03-19T06:03:15;6.20;99.90
2579;DHT22;1299;48.282;14.398;2023-03-19T06:05:43;6.30;99.90
2579;DHT22;1299;48.282;14.398;2023-03-19T06:08:10;6.50;99.90
2579;DHT22;1299;48.282;14.398;2023-03-19T06:10:39;6.50;99.90
2579;DHT22;1299;48.282;14.398;2023-03-19T06:13:06;6.50;99.90
2579;DHT22;1299;48.282;14.398;2023-03-19T06:15:33;6.50;99.90
2579;DHT22;1299;48.282;14.398;2023-03-19T06:18:01;6.60;99.90
2579;DHT22;1299;48.282;14.398;2023-03-19T06:20:29;6.80;99.90
2579;DHT22;1299;48.282;14.398;2023-03-19T06:22:57;7.30;99.90
2579;DHT22;1299;48.282;14.398;2023-03-19T06:25:24;8.50;99.90
2579;DHT22;1299;48.282;14.398;2023-03-19T06:27:53;8.90;99.90
2579;DHT22;1299;48.282;14.398;2023-03-19T06:30:21;9.30;99.90
2579;DHT22;1299;48.282;14.398;2023-03-19T06:32:48;9.60;99.90
2579;DHT22;1299;48.282;14.398;2023-03-19T06:35:16;10.50;99.90
2579;DHT22;1299;48.282;14.398;2023-03-19T06:37:43;11.00;99.90
2579;DHT22;1299;48.282;14.398;2023-03-19T06:40:11;10.10;99.90
2579;DHT22;1299;48.282;14.398;2023-03-19T06:42:38;10.50;99.90
2579;DHT22;1299;48.282;14.398;2023-03-19T06:45:08;11.40;99.90
2579;DHT22;1299;48.282;14.398;2023-03-19T06:47:35;9.10;99.90
2579;DHT22;1299;48.282;14.398;2023-03-19T06:50:03;10.60;99.90
2579;DHT22;1299;48.282;14.398;2023-03-19T06:52:31;11.70;99.90
2579;DHT22;1299;48.282;14.398;2023-03-19T06:54:58;13.10;99.90
2579;DHT22;1299;48.282;14.398;2023-03-19T06:57:26;13.80;99.90
2579;DHT22;1299;48.282;14.398;2023-03-19T06:59:53;15.00;96.30
2579;DHT22;1299;48.282;14.398;2023-03-19T07:02:22;15.30;93.30
2579;DHT22;1299;48.282;14.398;2023-03-19T07:04:51;14.10;93.30
2579;DHT22;1299;48.282;14.398;2023-03-19T07:07:18;14.30;93.20
2579;DHT22;1299;48.282;14.398;2023-03-19T07:09:46;14.70;90.70
2579;DHT22;1299;48.282;14.398;2023-03-19T07:12:13;15.40;88.90
2579;DHT22;1299;48.282;14.398;2023-03-19T07:14:40;16.10;86.00
2579;DHT22;1299;48.282;14.398;2023-03-19T07:17:08;15.30;78.30
2579;DHT22;1299;48.282;14.398;2023-03-19T07:19:37;14.70;84.60
2579;DHT22;1299;48.282;14.398;2023-03-19T07:22:04;14.80;84.10
2579;DHT22;1299;48.282;14.398;2023-03-19T07:24:31;14.50;83.30
2579;DHT22;1299;48.282;14.398;2023-03-19T07:26:59;13.70;84.00
2579;DHT22;1299;48.282;14.398;2023-03-19T07:29:27;13.20;84.10
2579;DHT22;1299;48.282;14.398;2023-03-19T07:31:54;12.60;85.20
2579;DHT22;1299;48.282;14.398;2023-03-19T07:34:22;11.60;86.30
2579;DHT22;1299;48.282;14.398;2023-03-19T07:36:51;11.80;86.60
2579;DHT22;1299;48.282;14.398;2023-03-19T07:39:19;11.30;87.40
2579;DHT22;1299;48.282;14.398;2023-03-19T07:41:47;10.40;87.40
2579;DHT22;1299;48.282;14.398;2023-03-19T07:44:15;11.00;89.30
2579;DHT22;1299;48.282;14.398;2023-03-19T07:46:42;10.70;90.40
2579;DHT22;1299;48.282;14.398;2023-03-19T07:49:10;10.30;90.20
2579;DHT22;1299;48.282;14.398;2023-03-19T07:51:37;10.00;89.80
2579;DHT22;1299;48.282;14.398;2023-03-19T07:54:06;9.60;90.60
2579;DHT22;1299;48.282;14.398;2023-03-19T07:56:33;9.20;91.30
2579;DHT22;1299;48.282;14.398;2023-03-19T07:59:01;9.50;92.10
2579;DHT22;1299;48.282;14.398;2023-03-19T08:01:28;9.20;92.60
2579;DHT22;1299;48.282;14.398;2023-03-19T08:03:55;9.30;93.50
2579;DHT22;1299;48.282;14.398;2023-03-19T08:06:23;9.50;93.00
2579;DHT22;1299;48.282;14.398;2023-03-19T08:08:51;9.60;93.10
2579;DHT22;1299;48.282;14.398;2023-03-19T08:11:20;9.00;93.40
2579;DHT22;1299;48.282;14.398;2023-03-19T08:13:47;9.40;94.10
2579;DHT22;1299;48.282;14.398;2023-03-19T08:16:15;9.20;94.30
2579;DHT22;1299;48.282;14.398;2023-03-19T08:18:43;9.10;94.70
2579;DHT22;1299;48.282;14.398;2023-03-19T08:21:10;9.70;94.50
2579;DHT22;1299;48.282;14.398;2023-03-19T08:23:37;9.70;94.70
2579;DHT22;1299;48.282;14.398;2023-03-19T08:26:05;9.80;94.10
2579;DHT22;1299;48.282;14.398;2023-03-19T08:28:35;10.10;93.20
2579;DHT22;1299;48.282;14.398;2023-03-19T08:31:07;9.90;92.80
2579;DHT22;1299;48.282;14.398;2023-03-19T08:33:35;10.60;92.10
2579;DHT22;1299;48.282;14.398;2023-03-19T08:36:07;10.50;91.90
2579;DHT22;1299;48.282;14.398;2023-03-19T08:38:36;10.20;91.80
2579;DHT22;1299;48.282;14.398;2023-03-19T08:41:04;9.80;91.70
2579;DHT22;1299;48.282;14.398;2023-03-19T08:43:32;10.00;91.80
2579;DHT22;1299;48.282;14.398;2023-03-19T08:46:02;10.80;91.80
2579;DHT22;1299;48.282;14.398;2023-03-19T08:48:29;11.10;91.10
2579;DHT22;1299;48.282;14.398;2023-03-19T08:50:59;11.00;90.90
2579;DHT22;1299;48.282;14.398;2023-03-19T08:53:28;11.20;90.90
2579;DHT22;1299;48.282;14.398;2023-03-19T08:55:57;10.90;90.70
2579;DHT22;1299;48.282;14.398;2023-03-19T08:58:25;10.80;90.60
2579;DHT22;1299;48.282;14.398;2023-03-19T09:00:58;11.20;89.90
2579;DHT22;1299;48.282;14.398;2023-03-19T09:03:28;11.20;89.90
2579;DHT22;1299;48.282;14.398;2023-03-19T09:05:57;11.80;90.40
2579;DHT22;1299;48.282;14.398;2023-03-19T09:08:25;12.10;88.20
2579;DHT22;1299;48.282;14.398;2023-03-19T09:10:52;11.60;89.20
2579;DHT22;1299;48.282;14.398;2023-03-19T09:13:20;12.00;90.00
2579;DHT22;1299;48.282;14.398;2023-03-19T09:15:48;12.10;89.10
2579;DHT22;1299;48.282;14.398;2023-03-19T09:18:15;11.50;88.70
2579;DHT22;1299;48.282;14.398;2023-03-19T09:20:44;11.90;90.30
2579;DHT22;1299;48.282;14.398;2023-03-19T09:23:12;11.90;90.80
2579;DHT22;1299;48.282;14.398;2023-03-19T09:25:39;11.70;90.40
2579;DHT22;1299;48.282;14.398;2023-03-19T09:28:07;12.70;89.70
2579;DHT22;1299;48.282;14.398;2023-03-19T09:30:34;11.80;90.00
2579;DHT22;1299;48.282;14.398;2023-03-19T09:33:03;12.30;88.40
2579;DHT22;1299;48.282;14.398;2023-03-19T09:35:30;12.70;89.10
2579;DHT22;1299;48.282;14.398;2023-03-19T09:38:00;12.90;89.30
2579;DHT22;1299;48.282;14.398;2023-03-19T09:40:32;13.10;87.10
2579;DHT22;1299;48.282;14.398;2023-03-19T09:43:11;13.50;87.30
2579;DHT22;1299;48.282;14.398;2023-03-19T09:45:44;12.00;87.60
2579;DHT22;1299;48.282;14.398;2023-03-19T09:48:18;12.20;89.90
2579;DHT22;1299;48.282;14.398;2023-03-19T09:50:48;12.50;89.20
2579;DHT22;1299;48.282;14.398;2023-03-19T09:53:25;12.90;88.80
2579;DHT22;1299;48.282;14.398;2023-03-19T09:55:56;12.90;88.00
2579;DHT22;1299;48.282;14.398;2023-03-19T09:58:29;12.80;87.20
2579;DHT22;1299;48.282;14.398;2023-03-19T10:00:58;12.80;88.70
2579;DHT22;1299;48.282;14.398;2023-03-19T10:03:38;13.10;88.60
2579;DHT22;1299;48.282;14.398;2023-03-19T10:06:24;13.00;88.20
2579;DHT22;1299;48.282;14.398;2023-03-19T10:09:04;12.40;87.00
2579;DHT22;1299;48.282;14.398;2023-03-19T10:11:47;12.90;88.50
2579;DHT22;1299;48.282;14.398;2023-03-19T10:17:15;13.10;88.30
2579;DHT22;1299;48.282;14.398;2023-03-19T10:19:46;13.30;87.10
2579;DHT22;1299;48.282;14.398;2023-03-19T10:22:20;12.40;86.90
2579;DHT22;1299;48.282;14.398;2023-03-19T10:24:50;12.70;86.60
2579;DHT22;1299;48.282;14.398;2023-03-19T10:27:22;13.40;87.20
2579;DHT22;1299;48.282;14.398;2023-03-19T10:29:53;13.80;86.20
2579;DHT22;1299;48.282;14.398;2023-03-19T10:32:29;14.30;85.70
2579;DHT22;1299;48.282;14.398;2023-03-19T10:35:05;14.60;85.30
2579;DHT22;1299;48.282;14.398;2023-03-19T10:37:34;15.10;84.10
2579;DHT22;1299;48.282;14.398;2023-03-19T10:40:09;14.60;83.20
2579;DHT22;1299;48.282;14.398;2023-03-19T10:42:50;14.50;83.30
2579;DHT22;1299;48.282;14.398;2023-03-19T10:45:24;14.20;81.80
2579;DHT22;1299;48.282;14.398;2023-03-19T10:47:53;14.00;84.10
2579;DHT22;1299;48.282;14.398;2023-03-19T10:50:27;13.60;84.10
2579;DHT22;1299;48.282;14.398;2023-03-19T10:53:04;13.70;84.50
2579;DHT22;1299;48.282;14.398;2023-03-19T10:55:33;14.20;85.20
2579;DHT22;1299;48.282;14.398;2023-03-19T10:58:03;14.50;83.30
2579;DHT22;1299;48.282;14.398;2023-03-19T11:00:33;14.10;83.40
2579;DHT22;1299;48.282;14.398;2023-03-19T11:03:02;14.00;84.10
2579;DHT22;1299;48.282;14.398;2023-03-19T11:05:31;14.50;84.50
2579;DHT22;1299;48.282;14.398;2023-03-19T11:08:00;14.20;83.60
2579;DHT22;1299;48.282;14.398;2023-03-19T11:10:29;14.80;83.40
2579;DHT22;1299;48.282;14.398;2023-03-19T11:13:03;14.30;82.40
2579;DHT22;1299;48.282;14.398;2023-03-19T11:15:33;13.90;84.10
2579;DHT22;1299;48.282;14.398;2023-03-19T11:18:07;14.10;85.40
2579;DHT22;1299;48.282;14.398;2023-03-19T11:20:36;14.50;84.40
2579;DHT22;1299;48.282;14.398;2023-03-19T11:23:06;15.40;85.40
2579;DHT22;1299;48.282;14.398;2023-03-19T11:25:40;14.20;83.10
2579;DHT22;1299;48.282;14.398;2023-03-19T11:28:12;14.80;85.60
2579;DHT22;1299;48.282;14.398;2023-03-19T11:30:48;14.90;84.10
2579;DHT22;1299;48.282;14.398;2023-03-19T11:33:38;15.00;84.80
2579;DHT22;1299;48.282;14.398;2023-03-19T11:36:11;15.00;85.30
2579;DHT22;1299;48.282;14.398;2023-03-19T11:38:50;15.40;84.80
2579;DHT22;1299;48.282;14.398;2023-03-19T11:41:33;15.30;86.00
2579;DHT22;1299;48.282;14.398;2023-03-19T11:44:05;16.20;86.00
2579;DHT22;1299;48.282;14.398;2023-03-19T11:46:42;16.60;85.20
2579;DHT22;1299;48.282;14.398;2023-03-19T11:49:30;16.90;83.30
2579;DHT22;1299;48.282;14.398;2023-03-19T11:52:02;17.00;82.50
2579;DHT22;1299;48.282;14.398;2023-03-19T11:54:36;16.80;82.20
2579;DHT22;1299;48.282;14.398;2023-03-19T11:57:13;16.50;83.80
2579;DHT22;1299;48.282;14.398;2023-03-19T11:59:59;17.00;84.50
2579;DHT22;1299;48.282;14.398;2023-03-19T12:02:51;17.70;84.30
2579;DHT22;1299;48.282;14.398;2023-03-19T12:05:28;18.00;82.50
2579;DHT22;1299;48.282;14.398;2023-03-19T12:08:14;18.30;82.60
2579;DHT22;1299;48.282;14.398;2023-03-19T12:11:00;18.50;80.50
2579;DHT22;1299;48.282;14.398;2023-03-19T12:13:38;18.10;80.30
2579;DHT22;1299;48.282;14.398;2023-03-19T12:16:16;17.90;81.20
2579;DHT22;1299;48.282;14.398;2023-03-19T12:19:00;18.30;81.30
2579;DHT22;1299;48.282;14.398;2023-03-19T12:21:40;17.40;80.90
2579;DHT22;1299;48.282;14.398;2023-03-19T12:24:18;18.20;82.80
2579;DHT22;1299;48.282;14.398;2023-03-19T12:26:53;18.60;82.60
2579;DHT22;1299;48.282;14.398;2023-03-19T12:29:28;18.90;82.60
2579;DHT22;1299;48.282;14.398;2023-03-19T12:32:13;19.10;82.20
2579;DHT22;1299;48.282;14.398;2023-03-19T12:34:46;19.20;80.50
2579;DHT22;1299;48.282;14.398;2023-03-19T12:37:22;19.10;80.90
2579;DHT22;1299;48.282;14.398;2023-03-19T12:40:03;19.20;81.10
2579;DHT22;1299;48.282;14.398;2023-03-19T12:42:36;19.30;82.60
2579;DHT22;1299;48.282;14.398;2023-03-19T12:45:21;19.50;81.70
2579;DHT22;1299;48.282;14.398;2023-03-19T12:47:56;19.40;79.00
2579;DHT22;1299;48.282;14.398;2023-03-19T12:50:25;19.50;79.10
2579;DHT22;1299;48.282;14.398;2023-03-19T12:52:55;19.60;79.10
2579;DHT22;1299;48.282;14.398;2023-03-19T12:55:31;19.40;78.90
2579;DHT22;1299;48.282;14.398;2023-03-19T12:58:07;19.40;79.60
2579;DHT22;1299;48.282;14.398;2023-03-19T13:00:47;19.10;81.90
2579;DHT22;1299;48.282;14.398;2023-03-19T13:03:20;19.20;83.60
2579;DHT22;1299;48.282;14.398;2023-03-19T13:05:54;19.40;83.80
2579;DHT22;1299;48.282;14.398;2023-03-19T13:08:27;19.50;83.10
2579;DHT22;1299;48.282;14.398;2023-03-19T13:10:57;19.40;83.30
2579;DHT22;1299;48.282;14.398;2023-03-19T13:13:35;19.50;83.30
2579;DHT22;1299;48.282;14.398;2023-03-19T13:16:15;19.60;83.10
2579;DHT22;1299;48.282;14.398;2023-03-19T13:18:50;19.80;84.30
2579;DHT22;1299;48.282;14.398;2023-03-19T13:21:22;19.80;84.60
2579;DHT22;1299;48.282;14.398;2023-03-19T13:23:59;19.70;85.70
2579;DHT22;1299;48.282;14.398;2023-03-19T13:26:29;19.70;86.20
2579;DHT22;1299;48.282;14.398;2023-03-19T13:29:01;19.60;86.80
2579;DHT22;1299;48.282;14.398;2023-03-19T13:31:33;19.60;88.60
2579;DHT22;1299;48.282;14.398;2023-03-19T13:34:05;19.90;88.30
2579;DHT22;1299;48.282;14.398;2023-03-19T13:36:36;19.70;88.80
2579;DHT22;1299;48.282;14.398;2023-03-19T13:39:13;19.90;87.40
2579;DHT22;1299;48.282;14.398;2023-03-19T13:41:51;20.00;87.90
2579;DHT22;1299;48.282;14.398;2023-03-19T13:44:34;19.80;88.70
2579;DHT22;1299;48.282;14.398;2023-03-19T13:47:02;19.40;89.20
2579;DHT22;1299;48.282;14.398;2023-03-19T13:50:21;19.50;89.30
2579;DHT22;1299;48.282;14.398;2023-03-19T13:52:51;19.70;89.50
2579;DHT22;1299;48.282;14.398;2023-03-19T13:55:47;20.00;88.30
2579;DHT22;1299;48.282;14.398;2023-03-19T13:58:19;20.10;87.30
2579;DHT22;1299;48.282;14.398;2023-03-19T14:01:05;19.60;87.40
2579;DHT22;1299;48.282;14.398;2023-03-19T14:03:34;19.90;88.80
2579;DHT22;1299;48.282;14.398;2023-03-19T14:06:11;19.80;87.90
2579;DHT22;1299;48.282;14.398;2023-03-19T14:08:53;20.00;88.30
2579;DHT22;1299;48.282;14.398;2023-03-19T14:11:22;20.10;89.20
2579;DHT22;1299;48.282;14.398;2023-03-19T14:13:52;20.20;87.40
2579;DHT22;1299;48.282;14.398;2023-03-19T14:16:23;19.70;87.50
2579;DHT22;1299;48.282;14.398;2023-03-19T14:18:56;19.60;88.10
2579;DHT22;1299;48.282;14.398;2023-03-19T14:21:39;19.40;89.20
2579;DHT22;1299;48.282;14.398;2023-03-19T14:24:28;19.40;89.40
2579;DHT22;1299;48.282;14.398;2023-03-19T14:27:00;19.60;90.00
2579;DHT22;1299;48.282;14.398;2023-03-19T14:29:29;19.40;89.40
2579;DHT22;1299;48.282;14.398;2023-03-19T14:32:05;19.30;90.40
2579;DHT22;1299;48.282;14.398;2023-03-19T14:34:36;19.50;90.20
2579;DHT22;1299;48.282;14.398;2023-03-19T14:37:17;19.50;90.20
2579;DHT22;1299;48.282;14.398;2023-03-19T14:39:51;19.00;90.00
2579;DHT22;1299;48.282;14.398;2023-03-19T14:42:24;19.00;90.20
2579;DHT22;1299;48.282;14.398;2023-03-19T14:45:27;18.90;90.60
2579;DHT22;1299;48.282;14.398;2023-03-19T14:48:14;18.80;90.50
2579;DHT22;1299;48.282;14.398;2023-03-19T14:51:18;18.70;90.50
2579;DHT22;1299;48.282;14.398;2023-03-19T14:53:53;18.50;90.10
2579;DHT22;1299;48.282;14.398;2023-03-19T14:56:25;18.40;90.30
2579;DHT22;1299;48.282;14.398;2023-03-19T14:58:54;18.50;89.80
2579;DHT22;1299;48.282;14.398;2023-03-19T15:01:24;18.50;89.40
2579;DHT22;1299;48.282;14.398;2023-03-19T15:03:54;18.30;89.80
2579;DHT22;1299;48.282;14.398;2023-03-19T15:06:23;18.30;90.00
2579;DHT22;1299;48.282;14.398;2023-03-19T15:08:53;18.40;89.70
2579;DHT22;1299;48.282;14.398;2023-03-19T15:11:35;18.30;88.70
2579;DHT22;1299;48.282;14.398;2023-03-19T15:14:19;18.30;89.90
2579;DHT22;1299;48.282;14.398;2023-03-19T15:16:57;18.00;89.40
2579;DHT22;1299;48.282;14.398;2023-03-19T15:19:29;18.00;89.80
2579;DHT22;1299;48.282;14.398;2023-03-19T15:22:04;17.80;89.80
2579;DHT22;1299;48.282;14.398;2023-03-19T15:24:46;17.80;89.90
2579;DHT22;1299;48.282;14.398;2023-03-19T15:27:18;17.80;89.10
2579;DHT22;1299;48.282;14.398;2023-03-19T15:29:47;17.70;90.20
2579;DHT22;1299;48.282;14.398;2023-03-19T15:32:33;17.70;89.40
2579;DHT22;1299;48.282;14.398;2023-03-19T15:35:01;17.40;88.10
2579;DHT22;1299;48.282;14.398;2023-03-19T15:37:31;17.10;87.00
2579;DHT22;1299;48.282;14.398;2023-03-19T15:40:02;17.30;87.40
2579;DHT22;1299;48.282;14.398;2023-03-19T15:42:34;17.30;87.90
2579;DHT22;1299;48.282;14.398;2023-03-19T15:45:06;17.40;88.00
2579;DHT22;1299;48.282;14.398;2023-03-19T15:47:38;17.30;87.70
2579;DHT22;1299;48.282;14.398;2023-03-19T15:50:10;17.30;87.20
2579;DHT22;1299;48.282;14.398;2023-03-19T15:52:42;17.30;87.30
2579;DHT22;1299;48.282;14.398;2023-03-19T15:55:17;17.40;86.60
2579;DHT22;1299;48.282;14.398;2023-03-19T15:57:47;17.40;87.00
2579;DHT22;1299;48.282;14.398;2023-03-19T16:00:17;17.40;86.90
2579;DHT22;1299;48.282;14.398;2023-03-19T16:02:47;17.40;86.90
2579;DHT22;1299;48.282;14.398;2023-03-19T16:05:23;17.30;86.80
2579;DHT22;1299;48.282;14.398;2023-03-19T16:07:53;17.10;86.70
2579;DHT22;1299;48.282;14.398;2023-03-19T16:10:37;17.10;87.10
2579;DHT22;1299;48.282;14.398;2023-03-19T16:13:37;17.10;87.20
2579;DHT22;1299;48.282;14.398;2023-03-19T16:16:13;17.10;87.10
2579;DHT22;1299;48.282;14.398;2023-03-19T16:18:47;17.00;87.70
2579;DHT22;1299;48.282;14.398;2023-03-19T16:21:22;17.00;87.60